Time;durP1;ratioP1;P1;durP2;ratioP2;P2;SDS_P1;SDS_P2;PMS_P1;PMS_P2;Temp;Humidity;BMP_temperature;BMP_pressure;BME280_temperature;BME280_humidity;BME280_pressure;Samples;Min_cycle;Max_cycle;Signal;HPM_P1;HPM_P2
2022/04/22 00:00:09;;;;;;;3.67;2.88;;;6.40;91.80;;;;;;5091072;27;20036;-76
2022/04/22 00:02:38;;;;;;;3.85;2.63;;;6.20;92.20;;;;;;5095878;27;20056;-76
2022/04/22 00:05:03;;;;;;;5.45;2.22;;;6.10;92.40;;;;;;5096383;27;20055;-77
2022/04/22 00:07:29;;;;;;;3.15;2.60;;;6.00;92.50;;;;;;5096502;28;20051;-77
2022/04/22 00:09:56;;;;;;;3.25;2.90;;;5.90;92.90;;;;;;5095180;27;20024;-77
2022/04/22 00:12:22;;;;;;;3.95;3.40;;;6.00;92.90;;;;;;5096438;27;20122;-77
2022/04/22 00:14:48;;;;;;;3.17;2.60;;;6.00;93.00;;;;;;5096071;28;20031;-76
2022/04/22 00:17:14;;;;;;;4.57;3.03;;;6.10;92.60;;;;;;5090078;28;20047;-77
2022/04/22 00:19:40;;;;;;;3.35;2.80;;;6.10;92.40;;;;;;5093907;27;20063;-76
2022/04/22 00:22:06;;;;;;;2.20;2.00;;;5.90;92.90;;;;;;5093277;28;20051;-76
2022/04/22 00:24:31;;;;;;;4.68;2.60;;;5.90;92.90;;;;;;5092456;28;20071;-77
2022/04/22 00:26:57;;;;;;;3.92;2.58;;;5.80;93.20;;;;;;5095526;27;20209;-76
2022/04/22 00:29:23;;;;;;;2.58;2.05;;;5.60;93.60;;;;;;5095954;28;20063;-76
2022/04/22 00:31:49;;;;;;;2.25;2.05;;;5.70;93.80;;;;;;5088920;28;20528;-74
2022/04/22 00:37:37;;;;;;;6.78;2.90;;;5.70;93.80;;;;;;5091943;27;20038;-72
2022/04/22 00:40:04;;;;;;;3.97;3.00;;;5.80;93.60;;;;;;5093831;27;20050;-74
2022/04/22 00:42:29;;;;;;;3.03;2.72;;;5.90;93.30;;;;;;5089780;27;20043;-74
2022/04/22 00:44:56;;;;;;;4.55;2.72;;;5.90;93.30;;;;;;5097726;27;20039;-74
2022/04/22 00:47:22;;;;;;;4.47;3.50;;;5.90;93.50;;;;;;5094158;28;20047;-73
2022/04/22 00:49:48;;;;;;;3.78;2.83;;;5.80;93.30;;;;;;5096609;28;20376;-74
2022/04/22 00:52:14;;;;;;;2.88;2.42;;;5.80;93.40;;;;;;5091700;28;20043;-74
2022/04/22 00:54:41;;;;;;;4.93;2.75;;;5.70;93.30;;;;;;5092984;28;20027;-72
2022/04/22 00:57:07;;;;;;;3.35;2.83;;;5.60;93.30;;;;;;5097255;28;20107;-73
2022/04/22 00:59:35;;;;;;;3.80;3.03;;;5.50;93.80;;;;;;5100063;28;20183;-73
2022/04/22 01:02:00;;;;;;;3.25;2.50;;;5.40;93.70;;;;;;5097560;27;20040;-73
2022/04/22 01:09:56;;;;;;;11.80;3.00;;;5.50;94.00;;;;;;5097724;28;20047;-73
2022/04/22 01:12:22;;;;;;;5.97;2.90;;;5.60;94.00;;;;;;5090819;28;20172;-73
2022/04/22 01:14:48;;;;;;;4.28;2.95;;;5.60;94.00;;;;;;5093742;28;20042;-73
2022/04/22 01:17:14;;;;;;;4.05;3.30;;;5.50;93.90;;;;;;5079574;28;20047;-73
2022/04/22 01:19:40;;;;;;;6.57;3.67;;;5.50;94.20;;;;;;5096849;28;20032;-73
2022/04/22 01:22:07;;;;;;;4.97;3.72;;;5.50;94.40;;;;;;5097628;27;20108;-73
2022/04/22 01:24:33;;;;;;;7.22;3.97;;;5.40;95.10;;;;;;5079531;28;20634;-73
2022/04/22 01:26:58;;;;;;;4.43;3.75;;;5.30;94.70;;;;;;5094849;28;20104;-77
2022/04/22 01:29:24;;;;;;;4.97;4.05;;;5.30;95.00;;;;;;5094862;28;20050;-77
2022/04/22 01:31:50;;;;;;;4.65;3.38;;;5.30;94.80;;;;;;5096013;28;20794;-78
2022/04/22 01:34:16;;;;;;;6.72;3.60;;;5.30;95.10;;;;;;5094839;28;20546;-77
2022/04/22 01:36:42;;;;;;;4.32;3.08;;;5.40;94.40;;;;;;5094521;28;20097;-77
2022/04/22 01:39:08;;;;;;;3.25;2.90;;;5.30;94.50;;;;;;5094546;28;20048;-77
2022/04/22 01:41:34;;;;;;;3.70;2.97;;;5.20;94.30;;;;;;5097090;28;20047;-78
2022/04/22 01:43:59;;;;;;;5.05;2.55;;;5.10;94.40;;;;;;5092877;28;20356;-77
2022/04/22 01:46:25;;;;;;;4.15;3.00;;;5.00;94.90;;;;;;5097024;28;20044;-78
2022/04/22 01:48:50;;;;;;;4.35;3.05;;;4.90;94.80;;;;;;5096929;28;20028;-77
2022/04/22 01:51:16;;;;;;;4.35;3.40;;;4.90;95.10;;;;;;5097432;28;20035;-78
2022/04/22 01:53:42;;;;;;;4.47;3.20;;;4.90;95.70;;;;;;5092892;28;20032;-78
2022/04/22 01:56:08;;;;;;;8.45;3.00;;;5.10;95.70;;;;;;5093892;28;20036;-77
2022/04/22 01:58:34;;;;;;;3.92;3.05;;;5.20;95.10;;;;;;5097079;28;20067;-77
2022/04/22 02:00:59;;;;;;;5.72;3.30;;;5.30;95.00;;;;;;5093423;28;20051;-77
2022/04/22 02:03:25;;;;;;;5.95;3.53;;;5.40;94.90;;;;;;5090899;28;20070;-78
2022/04/22 02:05:51;;;;;;;10.75;5.03;;;5.50;95.00;;;;;;5091151;28;20169;-77
2022/04/22 02:08:16;;;;;;;13.07;3.95;;;5.60;95.00;;;;;;5092863;28;20044;-77
2022/04/22 02:10:42;;;;;;;4.47;3.30;;;5.60;94.70;;;;;;5095334;28;20088;-77
2022/04/22 02:13:08;;;;;;;4.20;3.55;;;5.60;94.90;;;;;;5097278;27;20039;-78
2022/04/22 02:15:35;;;;;;;4.72;3.42;;;5.60;94.90;;;;;;5101550;28;20040;-78
2022/04/22 02:18:00;;;;;;;11.10;3.72;;;5.40;95.20;;;;;;5095117;27;20362;-77
2022/04/22 02:20:26;;;;;;;5.28;3.00;;;5.30;95.10;;;;;;5083241;28;20047;-78
2022/04/22 02:22:52;;;;;;;4.43;3.00;;;5.30;95.20;;;;;;5100760;27;20032;-77
2022/04/22 02:25:18;;;;;;;3.30;2.97;;;5.30;95.10;;;;;;5097209;27;20024;-77
2022/04/22 02:30:28;;;;;;;5.97;3.10;;;5.20;95.30;;;;;;5097092;27;20800;-77
2022/04/22 02:32:54;;;;;;;3.72;3.10;;;5.40;95.20;;;;;;5103501;28;20027;-77
2022/04/22 02:35:21;;;;;;;4.40;3.15;;;5.50;95.10;;;;;;5103913;28;20088;-77
2022/04/22 02:37:48;;;;;;;5.05;3.10;;;5.40;94.70;;;;;;5111523;27;20056;-77
2022/04/22 02:45:26;;;;;;;3.38;2.95;;;5.40;94.70;;;;;;5108412;28;20079;-78
2022/04/22 02:45:44;;;;;;;3.33;3.03;;;5.30;95.40;;;;;;5106556;27;20055;-78
2022/04/22 02:48:10;;;;;;;4.13;3.03;;;5.20;95.20;;;;;;5108275;28;20035;-78
2022/04/22 02:50:36;;;;;;;4.40;3.17;;;5.20;95.30;;;;;;5108951;27;20044;-78
2022/04/22 02:53:01;;;;;;;4.10;3.33;;;5.20;95.40;;;;;;5105144;27;20392;-78
2022/04/22 02:55:27;;;;;;;5.72;3.65;;;5.10;95.60;;;;;;5105183;28;20054;-77
2022/04/22 02:57:53;;;;;;;3.60;2.80;;;5.00;95.80;;;;;;5101698;27;20031;-77
2022/04/22 03:00:19;;;;;;;7.68;3.22;;;5.10;96.00;;;;;;5106284;27;20081;-78
2022/04/22 03:02:44;;;;;;;26.38;4.50;;;5.20;96.00;;;;;;5105323;27;20836;-77
2022/04/22 03:05:10;;;;;;;4.40;3.90;;;5.30;96.20;;;;;;5108399;28;20053;-78
2022/04/22 03:07:40;;;;;;;6.13;5.30;;;5.30;96.00;;;;;;5106538;28;20638;-78
2022/04/22 03:10:06;;;;;;;6.10;5.50;;;5.30;95.90;;;;;;5101394;28;20100;-78
2022/04/22 03:12:34;;;;;;;6.30;5.05;;;5.30;96.10;;;;;;5097531;27;20100;-78
2022/04/22 03:15:00;;;;;;;5.20;4.70;;;5.30;96.10;;;;;;5096057;27;20486;-77
2022/04/22 03:17:26;;;;;;;5.55;4.75;;;5.30;96.20;;;;;;5096589;28;20038;-78
2022/04/22 03:19:52;;;;;;;5.25;4.75;;;5.40;95.90;;;;;;5091833;28;20028;-78
2022/04/22 03:22:17;;;;;;;3.92;3.35;;;5.30;96.30;;;;;;5095491;28;20094;-77
2022/04/22 03:24:43;;;;;;;8.25;4.30;;;5.30;96.10;;;;;;5091594;27;24234;-78
2022/04/22 03:27:10;;;;;;;3.97;3.58;;;5.30;96.00;;;;;;5092192;28;20529;-77
2022/04/22 03:29:35;;;;;;;4.50;4.10;;;5.30;96.40;;;;;;5100547;27;20027;-78
2022/04/22 03:32:02;;;;;;;6.95;4.32;;;5.30;96.40;;;;;;5099716;27;20049;-78
2022/04/22 03:34:28;;;;;;;5.40;4.70;;;5.30;96.50;;;;;;5095918;27;20514;-77
2022/04/22 03:36:54;;;;;;;5.50;4.65;;;5.30;96.60;;;;;;5097839;28;20051;-77
2022/04/22 03:39:20;;;;;;;5.43;3.10;;;5.30;96.40;;;;;;5095324;27;20062;-78
2022/04/22 03:41:46;;;;;;;4.00;3.60;;;5.20;95.80;;;;;;5098674;28;20540;-77
2022/04/22 03:44:12;;;;;;;4.95;3.60;;;5.10;96.20;;;;;;5095879;28;20042;-78
2022/04/22 03:46:37;;;;;;;5.03;4.28;;;5.00;96.60;;;;;;5093753;27;20392;-77
2022/04/22 03:49:04;;;;;;;4.57;3.63;;;5.10;97.00;;;;;;5098178;27;20024;-77
2022/04/22 03:51:30;;;;;;;4.60;4.20;;;5.10;97.10;;;;;;5098904;27;20696;-77
2022/04/22 03:53:56;;;;;;;5.45;3.90;;;5.20;97.00;;;;;;5095234;27;20038;-73
2022/04/22 03:59:06;;;;;;;4.13;3.67;;;5.20;97.00;;;;;;5092025;27;20034;-72
2022/04/22 04:01:32;;;;;;;5.97;3.78;;;5.20;97.20;;;;;;5099104;27;20044;-72
2022/04/22 04:03:58;;;;;;;4.10;3.72;;;5.20;97.00;;;;;;5094827;28;20060;-73
2022/04/22 04:06:25;;;;;;;4.28;3.88;;;5.20;96.90;;;;;;5094325;28;20766;-72
2022/04/22 04:17:07;;;;;;;7.47;3.47;;;5.20;97.10;;;;;;5092253;28;20051;-73
2022/04/22 04:25:03;;;;;;;4.80;4.13;;;5.40;98.00;;;;;;5097479;27;20039;-73
2022/04/22 04:27:29;;;;;;;10.30;4.30;;;5.50;97.70;;;;;;5092734;27;20039;-73
2022/04/22 04:29:55;;;;;;;5.57;4.10;;;5.50;97.90;;;;;;5090251;27;20132;-73
2022/04/22 04:32:20;;;;;;;5.20;4.28;;;5.60;98.30;;;;;;5096663;27;20053;-73
2022/04/22 04:34:46;;;;;;;6.18;5.18;;;5.60;98.10;;;;;;5093560;28;20059;-73
2022/04/22 04:37:15;;;;;;;6.47;4.93;;;5.70;98.00;;;;;;5095564;27;20476;-73
2022/04/22 04:39:41;;;;;;;8.25;4.90;;;5.70;97.90;;;;;;5097470;27;20119;-72
2022/04/22 04:42:08;;;;;;;13.60;6.05;;;5.80;97.90;;;;;;5093222;28;20051;-73
2022/04/22 04:44:37;;;;;;;5.25;4.75;;;5.90;98.30;;;;;;5090208;27;20067;-73
2022/04/22 04:47:03;;;;;;;6.70;5.55;;;5.90;98.30;;;;;;5093856;27;20516;-73
2022/04/22 04:49:29;;;;;;;7.13;5.30;;;5.90;98.50;;;;;;5090555;28;20068;-73
2022/04/22 04:51:55;;;;;;;6.25;5.40;;;6.00;98.70;;;;;;5093829;27;20051;-71
2022/04/22 04:54:20;;;;;;;7.35;5.10;;;5.90;98.80;;;;;;5097606;28;20042;-74
2022/04/22 04:56:46;;;;;;;7.22;5.93;;;5.90;99.10;;;;;;5089528;28;20039;-75
2022/04/22 04:59:12;;;;;;;7.18;5.28;;;6.00;99.30;;;;;;5092161;28;20066;-75
2022/04/22 05:01:37;;;;;;;5.80;5.20;;;6.10;99.50;;;;;;5092053;27;20044;-74
2022/04/22 05:04:03;;;;;;;7.13;5.47;;;6.20;99.50;;;;;;5090318;27;20770;-71
2022/04/22 05:06:30;;;;;;;7.25;5.90;;;6.30;99.30;;;;;;5089763;27;20480;-72
2022/04/22 05:08:56;;;;;;;7.05;5.65;;;6.40;99.20;;;;;;5091593;27;20035;-73
2022/04/22 05:11:22;;;;;;;9.48;5.82;;;6.50;99.40;;;;;;5087675;28;20118;-72
2022/04/22 05:13:48;;;;;;;9.00;5.38;;;6.60;99.30;;;;;;5092012;28;20118;-73
2022/04/22 05:16:13;;;;;;;6.93;5.65;;;6.80;98.70;;;;;;5090763;28;20039;-72
2022/04/22 05:18:40;;;;;;;21.30;11.07;;;7.10;97.70;;;;;;5093168;28;20046;-72
2022/04/22 05:21:06;;;;;;;17.27;13.00;;;7.40;97.00;;;;;;5096604;28;20032;-74
2022/04/22 05:23:31;;;;;;;13.02;8.52;;;7.60;96.30;;;;;;5095352;28;20128;-75
2022/04/22 05:25:57;;;;;;;9.32;8.30;;;7.80;96.00;;;;;;5092608;28;20032;-75
2022/04/22 05:28:23;;;;;;;9.65;7.20;;;8.00;95.40;;;;;;5093327;28;20070;-74
2022/04/22 05:33:34;;;;;;;7.40;6.13;;;8.30;95.20;;;;;;5095162;28;20051;-74
2022/04/22 05:35:59;;;;;;;7.90;5.57;;;8.40;96.00;;;;;;5095357;28;20043;-74
2022/04/22 05:38:25;;;;;;;9.07;5.22;;;8.40;95.80;;;;;;5094258;28;20039;-69
2022/04/22 05:40:51;;;;;;;6.90;5.10;;;8.50;94.80;;;;;;5091120;28;20375;-69
2022/04/22 05:43:16;;;;;;;7.45;5.32;;;8.70;94.30;;;;;;5100510;27;20035;-70
2022/04/22 05:45:42;;;;;;;6.45;5.38;;;8.80;93.80;;;;;;5104149;28;20052;-70
2022/04/22 05:48:08;;;;;;;5.82;4.85;;;8.80;93.10;;;;;;5102471;28;20038;-70
2022/04/22 05:50:34;;;;;;;5.50;5.00;;;8.80;92.80;;;;;;5095617;27;20036;-69
2022/04/22 05:53:00;;;;;;;5.57;4.80;;;8.90;93.20;;;;;;5098885;28;20044;-70
2022/04/22 05:55:27;;;;;;;6.07;4.78;;;8.90;93.10;;;;;;5099991;27;20031;-70
2022/04/22 05:57:53;;;;;;;9.38;4.57;;;9.10;93.00;;;;;;5095217;28;20031;-70
2022/04/22 06:00:24;;;;;;;7.10;4.70;;;9.20;92.90;;;;;;5099796;28;20038;-69
2022/04/22 06:02:50;;;;;;;6.22;5.18;;;9.20;93.00;;;;;;5100586;27;20108;-70
2022/04/22 06:05:18;;;;;;;6.68;4.65;;;9.20;92.90;;;;;;5099152;27;20027;-70
2022/04/22 06:07:44;;;;;;;5.63;4.85;;;9.30;92.40;;;;;;5094623;27;20100;-69
2022/04/22 06:12:57;;;;;;;7.13;5.35;;;9.40;91.80;;;;;;5099960;28;20089;-69
2022/04/22 06:15:23;;;;;;;5.55;5.00;;;9.40;91.60;;;;;;5098126;27;20554;-69
2022/04/22 06:17:49;;;;;;;6.55;5.22;;;9.50;91.40;;;;;;5098997;28;20042;-70
2022/04/22 06:20:15;;;;;;;7.15;5.53;;;9.60;91.50;;;;;;5100963;27;20028;-69
2022/04/22 06:22:41;;;;;;;5.60;4.95;;;9.60;91.80;;;;;;5102708;27;20902;-70
2022/04/22 06:25:09;;;;;;;6.60;4.70;;;9.60;92.10;;;;;;5098840;27;20032;-70
2022/04/22 06:27:39;;;;;;;6.72;4.47;;;9.70;92.10;;;;;;5098348;27;20559;-70
2022/04/22 06:30:07;;;;;;;8.80;5.47;;;9.70;92.20;;;;;;5102606;28;20039;-70
2022/04/22 06:32:35;;;;;;;5.97;5.05;;;9.70;92.60;;;;;;5095234;28;20144;-69
2022/04/22 06:35:01;;;;;;;19.17;5.90;;;9.70;92.60;;;;;;5100531;28;20426;-70
2022/04/22 06:37:34;;;;;;;6.07;4.97;;;9.80;92.30;;;;;;5098909;28;20044;-70
2022/04/22 06:45:47;;;;;;;8.35;4.90;;;9.80;91.70;;;;;;5093397;28;20167;-70
2022/04/22 06:48:18;;;;;;;5.20;4.30;;;9.90;91.60;;;;;;5093396;28;20403;-70
2022/04/22 06:50:49;;;;;;;6.80;4.47;;;9.90;91.50;;;;;;5100175;27;20388;-70
2022/04/22 06:53:16;;;;;;;6.57;4.82;;;9.90;91.30;;;;;;5099991;27;20035;-70
2022/04/22 06:55:43;;;;;;;9.45;4.90;;;10.00;91.60;;;;;;5094085;28;20508;-70
2022/04/22 06:58:11;;;;;;;5.78;4.63;;;10.00;91.20;;;;;;5100693;27;20097;-70
2022/04/22 07:00:37;;;;;;;6.88;4.25;;;10.00;91.60;;;;;;5096384;27;20026;-70
2022/04/22 07:03:04;;;;;;;5.40;4.60;;;10.00;91.30;;;;;;5096295;28;20043;-70
2022/04/22 07:05:31;;;;;;;7.07;4.90;;;10.00;91.50;;;;;;5098252;28;20028;-70
2022/04/22 07:07:58;;;;;;;5.05;4.55;;;10.10;91.50;;;;;;5080768;28;20023;-69
2022/04/22 07:10:24;;;;;;;5.90;4.35;;;10.20;90.60;;;;;;5094039;27;20123;-70
2022/04/22 07:12:50;;;;;;;6.22;4.78;;;10.20;90.80;;;;;;5092134;28;20535;-70
2022/04/22 07:15:16;;;;;;;4.65;4.25;;;10.30;90.20;;;;;;5097331;28;20097;-70
2022/04/22 07:17:42;;;;;;;4.80;4.30;;;10.20;90.40;;;;;;5094690;28;20048;-70
2022/04/22 07:20:10;;;;;;;5.68;5.10;;;10.20;91.00;;;;;;5095015;27;20079;-70
2022/04/22 07:22:40;;;;;;;5.20;4.38;;;10.30;90.50;;;;;;5095058;27;20040;-70
2022/04/22 07:25:07;;;;;;;12.35;5.05;;;10.40;90.20;;;;;;5098457;27;20440;-70
2022/04/22 07:27:36;;;;;;;5.70;4.68;;;10.50;90.20;;;;;;5087897;27;20162;-70
2022/04/22 07:30:08;;;;;;;7.20;4.63;;;10.50;90.20;;;;;;5086003;27;20040;-70
2022/04/22 07:32:37;;;;;;;6.93;5.35;;;10.40;90.20;;;;;;5088406;27;20024;-70
2022/04/22 07:35:13;;;;;;;7.90;5.07;;;10.30;90.30;;;;;;5097180;27;20469;-70
2022/04/22 07:37:40;;;;;;;6.70;4.65;;;10.20;90.10;;;;;;5095510;28;20046;-70
2022/04/22 07:40:07;;;;;;;7.63;5.65;;;10.00;90.20;;;;;;5089301;27;20055;-70
2022/04/22 07:42:34;;;;;;;6.05;5.38;;;10.00;90.70;;;;;;5093577;28;20055;-70
2022/04/22 07:47:47;;;;;;;6.57;5.65;;;10.20;90.50;;;;;;5096145;27;20835;-70
2022/04/22 07:50:14;;;;;;;6.68;5.47;;;10.30;90.70;;;;;;5087130;27;20044;-70
2022/04/22 07:52:44;;;;;;;6.55;5.60;;;10.40;90.70;;;;;;5092930;28;20036;-70
2022/04/22 07:55:10;;;;;;;6.07;4.70;;;10.20;90.50;;;;;;5088766;27;20031;-70
2022/04/22 07:57:36;;;;;;;6.28;5.47;;;10.10;90.50;;;;;;5072283;28;20048;-70
2022/04/22 08:00:04;;;;;;;6.35;5.20;;;10.20;90.90;;;;;;5099078;28;20119;-70
2022/04/22 08:02:29;;;;;;;7.88;5.40;;;10.40;90.70;;;;;;5094333;28;20059;-69
2022/04/22 08:04:55;;;;;;;7.35;5.40;;;10.50;90.10;;;;;;5096046;27;20841;-70
2022/04/22 08:07:21;;;;;;;7.68;5.47;;;10.50;89.20;;;;;;5091294;28;20047;-70
2022/04/22 08:09:47;;;;;;;5.53;4.93;;;10.40;88.80;;;;;;5091800;27;20457;-70
2022/04/22 08:12:14;;;;;;;10.00;5.78;;;10.20;89.30;;;;;;5092469;27;20405;-70
2022/04/22 08:14:40;;;;;;;5.65;5.10;;;10.20;89.70;;;;;;5094156;27;20168;-70
2022/04/22 08:17:07;;;;;;;7.60;5.57;;;10.20;90.20;;;;;;5089138;28;20024;-69
2022/04/22 08:19:33;;;;;;;7.03;5.78;;;10.30;90.20;;;;;;5092659;27;20419;-69
2022/04/22 08:21:59;;;;;;;7.55;5.72;;;10.50;90.40;;;;;;5084344;28;20051;-69
2022/04/22 08:24:25;;;;;;;8.25;5.53;;;10.50;90.00;;;;;;5093104;28;20039;-69
2022/04/22 08:26:51;;;;;;;6.80;5.55;;;10.50;90.00;;;;;;5095435;28;20039;-69
2022/04/22 08:29:17;;;;;;;7.45;5.55;;;10.50;90.00;;;;;;5076555;28;20092;-69
2022/04/22 08:31:44;;;;;;;7.10;5.35;;;10.50;90.10;;;;;;5102630;28;20028;-69
2022/04/22 08:34:10;;;;;;;6.05;5.45;;;10.40;90.20;;;;;;5097146;28;20581;-69
2022/04/22 08:36:36;;;;;;;8.63;5.80;;;10.50;90.30;;;;;;5092162;28;20218;-69
2022/04/22 08:39:02;;;;;;;6.22;5.60;;;10.60;90.00;;;;;;5088505;27;20394;-69
2022/04/22 08:41:27;;;;;;;5.75;5.13;;;10.60;90.20;;;;;;5070301;28;20056;-69
2022/04/22 08:43:56;;;;;;;5.63;4.95;;;10.70;90.30;;;;;;5084379;28;20050;-69
2022/04/22 08:51:51;;;;;;;6.20;5.40;;;10.90;90.20;;;;;;5084357;27;20101;-69
2022/04/22 08:54:19;;;;;;;8.10;5.55;;;10.90;89.70;;;;;;5090010;28;20032;-69
2022/04/22 08:56:46;;;;;;;6.45;4.78;;;10.80;90.20;;;;;;5090225;27;20028;-69
2022/04/22 08:59:12;;;;;;;5.63;5.10;;;10.80;90.60;;;;;;5092388;28;20502;-68
2022/04/22 09:01:38;;;;;;;6.72;5.53;;;10.80;91.00;;;;;;5093985;28;20040;-69
2022/04/22 09:04:05;;;;;;;7.97;5.88;;;10.90;90.60;;;;;;5089701;27;20035;-69
2022/04/22 09:06:31;;;;;;;6.97;5.82;;;10.90;90.60;;;;;;5090943;28;20224;-69
2022/04/22 09:08:58;;;;;;;7.53;5.55;;;10.90;91.20;;;;;;5087177;28;20036;-69
2022/04/22 09:11:24;;;;;;;7.78;6.20;;;10.80;92.30;;;;;;5076017;28;20615;-69
2022/04/22 09:13:50;;;;;;;7.97;6.32;;;10.80;92.70;;;;;;5090116;27;20040;-69
2022/04/22 09:16:20;;;;;;;7.10;6.32;;;10.70;93.50;;;;;;5088284;28;20116;-69
2022/04/22 09:18:46;;;;;;;7.72;6.88;;;10.60;95.10;;;;;;5096496;28;20070;-69
2022/04/22 09:21:18;;;;;;;7.47;6.68;;;10.60;95.70;;;;;;5088741;28;20131;-69
2022/04/22 09:23:46;;;;;;;7.50;6.40;;;10.50;96.20;;;;;;5095623;28;20104;-69
2022/04/22 09:26:25;;;;;;;8.43;7.25;;;10.40;97.20;;;;;;5089305;28;20433;-69
2022/04/22 09:28:58;;;;;;;9.55;6.93;;;10.40;98.20;;;;;;5091359;28;20050;-69
2022/04/22 09:31:25;;;;;;;8.23;6.93;;;10.40;97.90;;;;;;5083378;28;20086;-69
2022/04/22 09:33:51;;;;;;;8.25;6.50;;;10.30;97.00;;;;;;5093054;28;20031;-69
2022/04/22 09:44:56;;;;;;;6.20;5.50;;;10.60;96.60;;;;;;5091139;28;20380;-69
2022/04/22 09:47:24;;;;;;;6.28;5.60;;;10.60;96.50;;;;;;5091036;28;20132;-69
2022/04/22 09:49:50;;;;;;;6.20;5.63;;;10.70;96.70;;;;;;5098317;28;20525;-69
2022/04/22 09:52:31;;;;;;;6.32;5.70;;;10.90;96.50;;;;;;5088799;28;20044;-69
2022/04/22 09:55:02;;;;;;;7.40;5.97;;;11.20;96.10;;;;;;5087028;28;20097;-69
2022/04/22 09:57:29;;;;;;;7.13;6.18;;;11.30;95.70;;;;;;5084470;28;20062;-69
2022/04/22 09:59:55;;;;;;;7.95;6.28;;;11.30;95.60;;;;;;5082546;28;20039;-69
2022/04/22 10:02:24;;;;;;;6.75;6.05;;;11.30;95.30;;;;;;5094281;28;20043;-69
2022/04/22 10:04:54;;;;;;;7.35;6.15;;;11.30;95.10;;;;;;5090310;27;20032;-69
2022/04/22 10:07:25;;;;;;;7.95;5.97;;;11.30;94.20;;;;;;5078621;28;20038;-69
2022/04/22 10:09:54;;;;;;;8.07;6.38;;;11.30;94.80;;;;;;5087099;28;20040;-69
2022/04/22 10:12:22;;;;;;;9.63;6.75;;;11.20;94.90;;;;;;5093589;28;20046;-69
2022/04/22 10:14:53;;;;;;;7.88;6.53;;;11.20;94.80;;;;;;5094188;28;20023;-69
2022/04/22 10:17:20;;;;;;;10.07;6.78;;;11.20;95.30;;;;;;5088648;28;20093;-69
2022/04/22 10:19:46;;;;;;;10.10;7.35;;;11.30;95.30;;;;;;5089692;28;20042;-69
2022/04/22 10:22:13;;;;;;;7.80;6.97;;;11.30;95.20;;;;;;5094413;28;20050;-69
2022/04/22 10:24:40;;;;;;;7.35;6.63;;;11.30;95.50;;;;;;5097970;28;20445;-69
2022/04/22 10:27:08;;;;;;;8.25;7.35;;;11.40;96.40;;;;;;5092426;27;20070;-69
2022/04/22 10:29:36;;;;;;;7.60;6.57;;;11.40;95.80;;;;;;5096867;27;20028;-68
2022/04/22 10:32:04;;;;;;;7.40;6.47;;;11.40;96.10;;;;;;5087909;27;20063;-69
2022/04/22 10:34:41;;;;;;;7.05;6.35;;;11.40;95.80;;;;;;5091591;27;20122;-69
2022/04/22 10:37:28;;;;;;;9.05;7.10;;;11.40;95.40;;;;;;5092498;27;20040;-69
2022/04/22 10:39:57;;;;;;;7.80;6.65;;;11.50;95.50;;;;;;5086273;27;20062;-69
2022/04/22 10:42:34;;;;;;;8.13;6.80;;;11.50;95.50;;;;;;5092412;27;20040;-69
2022/04/22 10:47:53;;;;;;;;;;;11.60;94.90;;;;;;5092757;27;20261;-69
2022/04/22 10:50:30;;;;;;;7.38;6.68;;;11.60;94.90;;;;;;5095521;27;19911;-69
2022/04/22 10:53:23;;;;;;;7.93;7.13;;;11.60;94.80;;;;;;5093182;27;20038;-69
2022/04/22 10:55:49;;;;;;;10.07;7.55;;;11.70;94.80;;;;;;5085201;27;20599;-69
2022/04/22 10:58:20;;;;;;;9.73;7.43;;;11.70;94.80;;;;;;5099298;28;20046;-69
2022/04/22 11:00:47;;;;;;;11.30;8.05;;;11.70;94.60;;;;;;5096514;28;20044;-68
2022/04/22 11:03:31;;;;;;;8.48;7.57;;;11.70;94.90;;;;;;5093862;27;20046;-70
2022/04/22 11:05:57;;;;;;;11.20;8.55;;;11.70;94.90;;;;;;5089188;27;20039;-69
2022/04/22 11:08:28;;;;;;;9.27;8.07;;;11.70;94.90;;;;;;5087281;27;20400;-68
2022/04/22 11:10:53;;;;;;;8.73;7.55;;;11.70;95.00;;;;;;5087357;27;20096;-69
2022/04/22 11:13:40;;;;;;;9.23;7.35;;;11.70;95.10;;;;;;5093031;27;20047;-69
2022/04/22 11:16:22;;;;;;;9.48;7.68;;;11.80;95.10;;;;;;5096361;28;20484;-69
2022/04/22 11:19:10;;;;;;;10.05;7.82;;;11.90;95.00;;;;;;5096318;27;20039;-69
2022/04/22 11:21:36;;;;;;;8.48;7.55;;;11.90;94.60;;;;;;5089448;28;20127;-69
2022/04/22 11:24:09;;;;;;;9.90;7.45;;;11.90;94.40;;;;;;5098989;27;20433;-69
2022/04/22 11:26:35;;;;;;;8.43;6.75;;;11.90;94.30;;;;;;5088904;27;20031;-69
2022/04/22 11:29:06;;;;;;;8.48;7.38;;;11.90;94.10;;;;;;5086087;28;20442;-69
2022/04/22 11:31:35;;;;;;;9.07;7.50;;;11.90;94.30;;;;;;5091544;28;20512;-69
2022/04/22 11:34:07;;;;;;;8.75;7.60;;;12.00;94.40;;;;;;5086720;27;20039;-69
2022/04/22 11:36:44;;;;;;;8.30;6.70;;;12.00;94.20;;;;;;5098685;28;20040;-69
2022/04/22 11:39:23;;;;;;;6.30;5.70;;;12.00;93.70;;;;;;5095168;28;20117;-69
2022/04/22 11:42:01;;;;;;;7.35;6.55;;;12.10;93.50;;;;;;5094986;27;20051;-69
2022/04/22 11:44:27;;;;;;;6.93;6.32;;;12.10;93.10;;;;;;5092823;27;20155;-69
2022/04/22 11:46:53;;;;;;;10.75;6.47;;;12.20;93.40;;;;;;5091430;27;20111;-69
2022/04/22 11:49:28;;;;;;;7.70;6.25;;;12.10;93.00;;;;;;5088880;27;20032;-69
2022/04/22 11:51:55;;;;;;;7.28;6.55;;;12.10;93.10;;;;;;5088917;27;20036;-69
2022/04/22 11:54:25;;;;;;;6.53;5.85;;;12.10;93.10;;;;;;5090257;27;20031;-68
2022/04/22 11:56:51;;;;;;;6.28;5.68;;;12.10;93.50;;;;;;5096429;28;20024;-69
2022/04/22 11:59:23;;;;;;;6.10;5.53;;;12.00;93.50;;;;;;5095232;27;20050;-69
2022/04/22 12:10:12;;;;;;;6.03;5.43;;;12.10;93.20;;;;;;5096177;28;20039;-69
2022/04/22 12:12:51;;;;;;;5.93;5.32;;;12.20;93.30;;;;;;5093907;27;20036;-69
2022/04/22 12:15:20;;;;;;;6.45;5.85;;;12.20;92.60;;;;;;5091108;27;20039;-69
2022/04/22 12:17:46;;;;;;;6.03;5.43;;;12.20;92.80;;;;;;5098464;28;20040;-69
2022/04/22 12:20:13;;;;;;;5.68;5.18;;;12.20;92.20;;;;;;5075552;27;20104;-69
2022/04/22 12:22:39;;;;;;;5.55;5.03;;;12.30;91.60;;;;;;5098351;28;20040;-69
2022/04/22 12:25:25;;;;;;;6.72;4.65;;;12.30;91.00;;;;;;5099933;28;20365;-69
2022/04/22 12:28:13;;;;;;;5.88;5.25;;;12.30;90.90;;;;;;5098215;28;20093;-69
2022/04/22 12:30:40;;;;;;;5.85;4.78;;;12.30;90.40;;;;;;5095544;28;20032;-69
2022/04/22 12:33:08;;;;;;;5.25;4.72;;;12.20;90.50;;;;;;5095579;27;20039;-69
2022/04/22 12:35:34;;;;;;;5.30;4.80;;;12.30;90.90;;;;;;5093978;27;20051;-69
2022/04/22 12:38:05;;;;;;;5.10;4.70;;;12.30;90.70;;;;;;5095559;27;20137;-69
2022/04/22 12:40:44;;;;;;;4.95;4.50;;;12.40;90.30;;;;;;5092729;28;20622;-69
2022/04/22 12:43:45;;;;;;;5.18;4.57;;;12.40;88.30;;;;;;5092660;27;20051;-69
2022/04/22 12:52:09;;;;;;;5.40;4.63;;;12.30;89.30;;;;;;5092695;27;20051;-68
2022/04/22 12:54:37;;;;;;;5.07;4.43;;;12.30;88.80;;;;;;5094579;27;20048;-69
2022/04/22 12:57:06;;;;;;;5.70;5.10;;;12.30;89.50;;;;;;5086343;28;20462;-69
2022/04/22 12:59:43;;;;;;;6.35;4.90;;;12.20;89.40;;;;;;5086407;27;20063;-69
2022/04/22 13:02:10;;;;;;;5.85;5.25;;;12.30;90.30;;;;;;5089821;28;20781;-69
2022/04/22 13:04:52;;;;;;;5.15;4.68;;;12.30;90.00;;;;;;5091055;28;20036;-69
2022/04/22 13:07:18;;;;;;;5.43;4.88;;;12.40;90.60;;;;;;5096141;28;20043;-69
2022/04/22 13:09:45;;;;;;;4.90;4.40;;;12.50;90.40;;;;;;5093532;27;20200;-69
2022/04/22 13:12:11;;;;;;;7.53;5.50;;;12.60;90.50;;;;;;5092448;27;20028;-69
2022/04/22 13:14:37;;;;;;;7.63;4.70;;;12.70;90.60;;;;;;5091218;27;20039;-70
2022/04/22 13:17:03;;;;;;;11.38;4.70;;;12.70;89.90;;;;;;5087917;28;20139;-69
2022/04/22 13:19:29;;;;;;;5.82;5.07;;;12.80;89.90;;;;;;5089902;28;20344;-69
2022/04/22 13:21:55;;;;;;;5.80;5.20;;;12.90;90.00;;;;;;5095516;28;20051;-68
2022/04/22 13:24:21;;;;;;;5.30;4.80;;;13.00;89.70;;;;;;5078002;28;20043;-70
2022/04/22 13:26:46;;;;;;;6.45;4.72;;;13.00;89.00;;;;;;5096626;28;20348;-69
2022/04/22 13:29:12;;;;;;;7.32;5.05;;;13.00;88.30;;;;;;5094983;28;20043;-69
2022/04/22 13:31:38;;;;;;;6.45;5.18;;;12.90;89.50;;;;;;5089006;27;20043;-70
2022/04/22 13:34:04;;;;;;;7.40;5.38;;;12.90;89.70;;;;;;5095732;28;20149;-70
2022/04/22 13:36:31;;;;;;;6.60;5.18;;;12.80;90.00;;;;;;5091047;28;20043;-70
2022/04/22 13:38:57;;;;;;;10.02;5.35;;;12.80;89.60;;;;;;5081580;28;20039;-70
2022/04/22 13:41:23;;;;;;;5.88;4.95;;;12.80;90.50;;;;;;5083731;28;20044;-70
2022/04/22 13:43:48;;;;;;;5.57;4.85;;;12.80;90.00;;;;;;5088935;28;20103;-70
2022/04/22 13:52:21;;;;;;;5.90;5.30;;;13.00;89.50;;;;;;5089383;28;20054;-71
2022/04/22 13:55:03;;;;;;;8.52;5.97;;;13.10;88.70;;;;;;5010230;28;20096;-71
2022/04/22 13:57:29;;;;;;;6.20;5.63;;;13.10;89.50;;;;;;5072977;28;20851;-69
2022/04/22 13:59:55;;;;;;;7.63;5.63;;;13.10;88.70;;;;;;5088452;28;20082;-69
2022/04/22 14:02:20;;;;;;;6.03;5.43;;;13.10;88.90;;;;;;5079605;28;20051;-70
2022/04/22 14:04:47;;;;;;;7.55;5.72;;;13.10;88.60;;;;;;5095856;27;20336;-69
2022/04/22 14:07:13;;;;;;;6.75;5.82;;;13.10;88.50;;;;;;5097143;27;20046;-69
2022/04/22 14:09:39;;;;;;;7.63;5.32;;;13.10;86.90;;;;;;5085508;27;20035;-69
2022/04/22 14:12:06;;;;;;;6.32;5.72;;;13.10;87.60;;;;;;5094344;27;20179;-69
2022/04/22 14:14:32;;;;;;;7.50;5.57;;;13.10;87.90;;;;;;5097873;27;20042;-69